createdAt,value
2023-10-13T00:00:44.431Z,100.00
2023-10-13T00:03:17.310Z,100.00
2023-10-13T00:05:46.915Z,100.00
2023-10-13T00:08:15.796Z,100.00
2023-10-13T00:10:44.499Z,100.00
2023-10-13T00:13:17.141Z,100.00
2023-10-13T00:15:58.227Z,100.00
2023-10-13T00:18:28.407Z,100.00
2023-10-13T00:20:58.565Z,100.00
2023-10-13T00:23:28.247Z,100.00
2023-10-13T00:26:00.166Z,100.00
2023-10-13T00:28:36.984Z,100.00
2023-10-13T00:31:11.928Z,100.00
2023-10-13T00:33:42.184Z,100.00
2023-10-13T00:36:18.514Z,100.00
2023-10-13T00:38:49.509Z,100.00
2023-10-13T00:41:19.201Z,100.00
2023-10-13T00:44:05.004Z,100.00
2023-10-13T00:46:35.624Z,100.00
2023-10-13T00:49:05.802Z,100.00
2023-10-13T00:51:36.202Z,100.00
2023-10-13T00:54:09.055Z,100.00
2023-10-13T00:56:42.198Z,100.00
2023-10-13T00:59:11.490Z,100.00
2023-10-13T01:01:42.282Z,100.00
2023-10-13T01:04:13.741Z,100.00
2023-10-13T01:06:43.293Z,100.00
2023-10-13T01:09:13.288Z,100.00
2023-10-13T01:11:44.290Z,100.00
2023-10-13T01:14:12.391Z,100.00
2023-10-13T01:16:45.278Z,100.00
2023-10-13T01:19:13.586Z,100.00
2023-10-13T01:21:42.913Z,100.00
2023-10-13T01:24:18.709Z,100.00
2023-10-13T01:26:52.399Z,100.00
2023-10-13T01:29:20.585Z,100.00
2023-10-13T01:31:49.303Z,100.00
2023-10-13T01:34:23.260Z,100.00
2023-10-13T01:36:53.168Z,100.00
2023-10-13T01:39:27.952Z,100.00
2023-10-13T01:41:57.397Z,100.00
2023-10-13T01:44:25.666Z,100.00
2023-10-13T01:46:53.752Z,100.00
2023-10-13T01:49:23.498Z,100.00
2023-10-13T01:51:51.608Z,100.00
2023-10-13T01:54:18.830Z,100.00
2023-10-13T01:56:50.042Z,100.00
2023-10-13T01:59:19.517Z,100.00
2023-10-13T02:01:47.798Z,100.00
2023-10-13T02:04:15.367Z,100.00
2023-10-13T02:06:44.508Z,100.00
2023-10-13T02:09:14.006Z,100.00
2023-10-13T02:11:43.304Z,100.00
2023-10-13T02:14:12.326Z,100.00
2023-10-13T02:16:41.330Z,100.00
2023-10-13T02:19:09.833Z,100.00
2023-10-13T02:21:42.077Z,100.00
2023-10-13T02:24:14.657Z,100.00
2023-10-13T02:26:43.091Z,100.00
2023-10-13T02:29:14.131Z,100.00
2023-10-13T02:31:43.387Z,100.00
2023-10-13T02:34:10.724Z,100.00
2023-10-13T02:36:48.001Z,100.00
2023-10-13T02:39:17.237Z,100.00
2023-10-13T02:41:49.165Z,100.00
2023-10-13T02:44:27.902Z,100.00
2023-10-13T02:46:57.166Z,100.00
2023-10-13T02:49:27.318Z,100.00
2023-10-13T02:51:56.959Z,100.00
2023-10-13T02:54:31.321Z,100.00
2023-10-13T02:57:00.438Z,100.00
2023-10-13T02:59:35.604Z,100.00
2023-10-13T03:02:18.426Z,100.00
2023-10-13T03:04:46.405Z,100.00
2023-10-13T03:07:16.808Z,100.00
2023-10-13T03:09:51.757Z,100.00
2023-10-13T03:12:19.929Z,100.00
2023-10-13T03:14:49.008Z,100.00
2023-10-13T03:17:18.454Z,100.00
2023-10-13T03:19:51.270Z,100.00
2023-10-13T03:22:19.656Z,100.00
2023-10-13T03:24:48.257Z,100.00
2023-10-13T03:27:17.864Z,100.00
2023-10-13T03:29:49.243Z,100.00
2023-10-13T03:32:19.355Z,100.00
2023-10-13T03:35:07.939Z,100.00
2023-10-13T03:37:40.157Z,100.00
2023-10-13T03:40:30.488Z,100.00
2023-10-13T03:43:05.725Z,100.00
2023-10-13T03:45:38.854Z,100.00
2023-10-13T03:48:12.828Z,100.00
2023-10-13T03:50:48.435Z,100.00
2023-10-13T03:53:16.634Z,100.00
2023-10-13T03:55:49.306Z,100.00
2023-10-13T03:58:17.990Z,100.00
2023-10-13T04:00:46.449Z,100.00
2023-10-13T04:03:19.137Z,100.00
2023-10-13T04:06:01.889Z,100.00
2023-10-13T04:08:55.854Z,100.00
2023-10-13T04:11:41.384Z,100.00
2023-10-13T04:14:45.705Z,100.00
2023-10-13T04:17:15.146Z,100.00
2023-10-13T04:20:13.466Z,100.00
2023-10-13T04:22:56.557Z,100.00
2023-10-13T04:25:40.204Z,100.00
2023-10-13T04:28:35.108Z,100.00
2023-10-13T04:31:13.086Z,100.00
2023-10-13T04:33:52.529Z,100.00
2023-10-13T04:36:37.648Z,100.00
2023-10-13T04:39:11.169Z,100.00
2023-10-13T04:41:46.163Z,100.00
2023-10-13T04:44:49.057Z,100.00
2023-10-13T04:47:30.686Z,100.00
2023-10-13T04:50:01.806Z,100.00
2023-10-13T04:53:02.535Z,100.00
2023-10-13T04:56:00.884Z,100.00
2023-10-13T04:58:58.002Z,100.00
2023-10-13T05:01:40.117Z,100.00
2023-10-13T05:04:23.367Z,100.00
2023-10-13T05:07:09.134Z,100.00
2023-10-13T05:09:55.686Z,100.00
2023-10-13T05:12:41.419Z,100.00
2023-10-13T05:15:27.344Z,100.00
2023-10-13T05:18:12.688Z,100.00
2023-10-13T05:20:57.994Z,100.00
2023-10-13T05:23:43.576Z,100.00
2023-10-13T05:26:30.172Z,100.00
2023-10-13T05:29:28.906Z,100.00
2023-10-13T05:32:15.348Z,100.00
2023-10-13T05:35:00.911Z,100.00
2023-10-13T05:37:46.275Z,100.00
2023-10-13T05:40:32.362Z,100.00
2023-10-13T05:43:19.419Z,100.00
2023-10-13T05:46:19.393Z,100.00
2023-10-13T05:51:48.894Z,100.00
2023-10-13T05:54:34.179Z,100.00
2023-10-13T05:57:19.686Z,100.00
2023-10-13T06:00:05.123Z,100.00
2023-10-13T06:02:50.385Z,100.00
2023-10-13T06:05:36.262Z,100.00
2023-10-13T06:08:23.778Z,100.00
2023-10-13T06:11:08.946Z,100.00
2023-10-13T06:13:54.133Z,100.00
2023-10-13T06:16:39.438Z,100.00
2023-10-13T06:19:25.243Z,100.00
2023-10-13T06:22:13.158Z,100.00
2023-10-13T06:24:59.806Z,100.00
2023-10-13T06:27:45.540Z,100.00
2023-10-13T06:30:14.681Z,100.00
2023-10-13T06:32:42.878Z,100.00
2023-10-13T06:35:19.941Z,100.00
2023-10-13T06:37:48.882Z,100.00
2023-10-13T06:40:35.868Z,100.00
2023-10-13T06:43:18.032Z,100.00
2023-10-13T06:45:52.152Z,100.00
2023-10-13T06:48:21.157Z,100.00
2023-10-13T06:50:53.307Z,100.00
2023-10-13T06:53:21.471Z,100.00
2023-10-13T06:55:53.760Z,100.00
2023-10-13T06:58:25.194Z,100.00
2023-10-13T07:00:56.665Z,100.00
2023-10-13T07:03:26.132Z,100.00
2023-10-13T07:05:55.050Z,100.00
2023-10-13T07:08:23.076Z,100.00
2023-10-13T07:11:03.945Z,100.00
2023-10-13T07:13:32.073Z,100.00
2023-10-13T07:18:42.766Z,100.00
2023-10-13T07:21:11.744Z,100.00
2023-10-13T07:23:40.209Z,100.00
2023-10-13T07:26:09.932Z,100.00
2023-10-13T07:28:44.548Z,100.00
2023-10-13T07:31:15.709Z,100.00
2023-10-13T07:33:43.671Z,100.00
2023-10-13T07:36:29.100Z,100.00
2023-10-13T07:39:33.324Z,100.00
2023-10-13T07:42:09.335Z,100.00
2023-10-13T07:44:41.527Z,100.00
2023-10-13T07:47:11.905Z,100.00
2023-10-13T07:49:41.434Z,100.00
2023-10-13T07:52:30.568Z,100.00
2023-10-13T07:55:12.282Z,100.00
2023-10-13T07:57:55.625Z,100.00
2023-10-13T08:00:30.933Z,100.00
2023-10-13T08:03:10.104Z,100.00
2023-10-13T08:05:57.250Z,100.00
2023-10-13T08:08:26.940Z,100.00
2023-10-13T08:10:58.226Z,100.00
2023-10-13T08:13:27.718Z,100.00
2023-10-13T08:15:55.944Z,100.00
2023-10-13T08:18:31.541Z,98.98
2023-10-13T08:21:04.480Z,98.52
2023-10-13T08:23:57.010Z,97.33
2023-10-13T08:26:53.112Z,96.55
2023-10-13T08:29:39.668Z,94.73
2023-10-13T08:32:25.054Z,94.51
2023-10-13T08:35:11.005Z,94.59
2023-10-13T08:38:08.564Z,92.75
2023-10-13T08:41:12.530Z,92.01
2023-10-13T08:43:48.382Z,90.88
2023-10-13T08:46:30.567Z,90.45
2023-10-13T08:49:15.267Z,91.02
2023-10-13T08:51:50.321Z,90.10
2023-10-13T08:54:35.023Z,89.21
2023-10-13T08:57:18.509Z,90.61
2023-10-13T08:59:54.137Z,91.10
2023-10-13T09:02:44.791Z,91.36
2023-10-13T09:05:28.101Z,92.21
2023-10-13T09:08:09.156Z,91.39
2023-10-13T09:10:46.270Z,91.79
2023-10-13T09:13:20.154Z,90.50
2023-10-13T09:16:03.054Z,91.72
2023-10-13T09:18:47.500Z,91.34
2023-10-13T09:21:35.709Z,90.68
2023-10-13T09:26:58.255Z,88.83
2023-10-13T09:29:26.169Z,88.29
2023-10-13T09:32:05.752Z,87.63
2023-10-13T09:34:35.581Z,87.11
2023-10-13T09:37:05.755Z,86.92
2023-10-13T09:39:46.118Z,86.85
2023-10-13T09:42:19.172Z,85.91
2023-10-13T09:44:56.795Z,85.16
2023-10-13T09:47:33.747Z,84.29
2023-10-13T09:50:07.122Z,83.74
2023-10-13T09:52:38.726Z,83.30
2023-10-13T09:55:19.598Z,81.08
2023-10-13T09:57:59.217Z,80.05
2023-10-13T10:00:53.866Z,78.67
2023-10-13T10:03:42.038Z,79.14
2023-10-13T10:06:17.131Z,77.95
2023-10-13T10:08:52.246Z,78.18
2023-10-13T10:11:52.479Z,78.09
2023-10-13T10:14:31.984Z,76.45
2023-10-13T10:17:10.031Z,76.85
2023-10-13T10:19:56.254Z,77.56
2023-10-13T10:22:34.847Z,74.81
2023-10-13T10:25:04.034Z,74.67
2023-10-13T10:27:33.545Z,73.28
2023-10-13T10:30:04.936Z,71.46
2023-10-13T10:32:37.692Z,72.13
2023-10-13T10:35:08.958Z,71.53
2023-10-13T10:37:38.508Z,71.22
2023-10-13T10:40:09.970Z,70.45
2023-10-13T10:42:41.204Z,71.23
2023-10-13T10:45:13.046Z,70.92
2023-10-13T10:47:50.135Z,70.07
2023-10-13T10:50:35.921Z,69.46
2023-10-13T10:53:09.963Z,68.39
2023-10-13T10:55:38.601Z,68.33
2023-10-13T10:58:07.669Z,68.51
2023-10-13T11:00:47.535Z,67.86
2023-10-13T11:03:15.750Z,68.92
2023-10-13T11:05:47.705Z,68.27
2023-10-13T11:08:32.669Z,69.13
2023-10-13T11:11:02.321Z,66.87
2023-10-13T11:13:44.167Z,65.54
2023-10-13T11:16:24.986Z,66.74
2023-10-13T11:19:02.759Z,64.76
2023-10-13T11:21:32.806Z,65.76
2023-10-13T11:24:09.849Z,65.20
2023-10-13T11:26:44.240Z,66.08
2023-10-13T11:29:12.279Z,65.36
2023-10-13T11:31:42.905Z,65.59
2023-10-13T11:34:19.281Z,63.97
2023-10-13T11:36:47.441Z,64.47
2023-10-13T11:39:19.965Z,61.91
2023-10-13T11:41:55.043Z,64.55
2023-10-13T11:44:32.082Z,63.38
2023-10-13T11:47:33.860Z,63.11
2023-10-13T11:50:01.952Z,61.41
2023-10-13T11:52:31.201Z,61.81
2023-10-13T11:54:59.145Z,61.67
2023-10-13T11:57:27.485Z,61.88
2023-10-13T11:59:57.111Z,61.01
2023-10-13T12:02:44.261Z,61.61
2023-10-13T12:05:17.944Z,61.93
2023-10-13T12:07:50.451Z,61.07
2023-10-13T12:10:34.277Z,60.37
2023-10-13T12:13:06.789Z,60.56
2023-10-13T12:15:52.605Z,60.10
2023-10-13T12:18:24.187Z,59.12
2023-10-13T12:20:52.128Z,58.61
2023-10-13T12:23:21.895Z,58.84
2023-10-13T12:26:02.364Z,60.25
2023-10-13T12:28:32.534Z,59.59
2023-10-13T12:31:08.465Z,59.15
2023-10-13T12:33:41.857Z,59.02
2023-10-13T12:36:16.066Z,57.92
2023-10-13T12:39:13.685Z,58.79
2023-10-13T12:41:59.042Z,58.72
2023-10-13T12:44:44.841Z,59.09
2023-10-13T12:47:30.212Z,61.07
2023-10-13T12:50:15.349Z,59.29
2023-10-13T12:52:46.864Z,60.00
2023-10-13T12:55:20.209Z,59.12
2023-10-13T12:57:48.659Z,60.11
2023-10-13T13:00:24.081Z,60.16
2023-10-13T13:02:54.035Z,59.75
2023-10-13T13:05:29.614Z,59.89
2023-10-13T13:07:57.831Z,60.98
2023-10-13T13:10:36.293Z,62.04
2023-10-13T13:13:06.619Z,62.31
2023-10-13T13:15:34.792Z,62.29
2023-10-13T13:18:11.451Z,60.75
2023-10-13T13:20:45.125Z,60.04
2023-10-13T13:23:14.788Z,60.37
2023-10-13T13:25:44.664Z,61.12
2023-10-13T13:28:12.585Z,60.34
2023-10-13T13:30:40.661Z,58.62
2023-10-13T13:33:13.030Z,57.71
2023-10-13T13:35:44.133Z,57.76
2023-10-13T13:38:18.023Z,58.04
2023-10-13T13:40:50.545Z,57.73
2023-10-13T13:43:32.959Z,58.40
2023-10-13T13:46:03.488Z,57.80
2023-10-13T13:48:32.455Z,56.93
2023-10-13T13:51:07.192Z,57.50
2023-10-13T13:53:36.175Z,57.42
2023-10-13T13:56:04.619Z,57.90
2023-10-13T13:58:32.707Z,57.80
2023-10-13T14:01:12.828Z,56.72
2023-10-13T14:03:46.504Z,58.04
2023-10-13T14:06:19.685Z,58.17
2023-10-13T14:08:49.634Z,58.09
2023-10-13T14:11:44.248Z,58.59
2023-10-13T14:14:26.998Z,58.72
2023-10-13T14:17:03.511Z,58.61
2023-10-13T14:19:31.764Z,58.24
2023-10-13T14:22:07.254Z,57.88
2023-10-13T14:24:36.987Z,57.81
2023-10-13T14:27:10.547Z,57.83
2023-10-13T14:29:41.326Z,59.51
2023-10-13T14:32:13.707Z,59.38
2023-10-13T14:34:42.545Z,58.79
2023-10-13T14:37:13.808Z,58.73
2023-10-13T14:39:41.805Z,59.38
2023-10-13T14:42:09.896Z,59.44
2023-10-13T14:44:38.450Z,58.85
2023-10-13T14:47:09.948Z,58.65
2023-10-13T14:49:38.411Z,59.38
2023-10-13T14:52:06.751Z,59.66
2023-10-13T14:54:36.114Z,59.91
2023-10-13T14:57:04.663Z,59.19
2023-10-13T14:59:34.500Z,59.90
2023-10-13T15:02:04.112Z,60.23
2023-10-13T15:04:34.372Z,59.79
2023-10-13T15:07:04.116Z,60.70
2023-10-13T15:09:32.510Z,60.35
2023-10-13T15:12:06.576Z,60.83
2023-10-13T15:14:38.070Z,59.60
2023-10-13T15:17:07.388Z,60.21
2023-10-13T15:19:37.267Z,59.47
2023-10-13T15:22:07.258Z,59.89
2023-10-13T15:24:42.809Z,60.71
2023-10-13T15:27:12.251Z,60.00
2023-10-13T15:29:40.335Z,59.74
2023-10-13T15:32:22.294Z,59.36
2023-10-13T15:34:50.246Z,58.80
2023-10-13T15:37:18.293Z,58.91
2023-10-13T15:39:46.196Z,58.73
2023-10-13T15:42:15.795Z,59.60
2023-10-13T15:44:44.807Z,59.74
2023-10-13T15:49:44.583Z,59.84
2023-10-13T15:52:12.596Z,59.92
2023-10-13T15:54:42.008Z,59.30
2023-10-13T15:57:17.360Z,58.40
2023-10-13T15:59:47.696Z,58.66
2023-10-13T16:02:18.290Z,58.29
2023-10-13T16:04:46.754Z,58.79
2023-10-13T16:07:14.823Z,59.31
2023-10-13T16:09:42.810Z,60.28
2023-10-13T16:12:12.077Z,59.68
2023-10-13T16:14:41.260Z,60.03
2023-10-13T16:17:10.966Z,60.23
2023-10-13T16:19:38.902Z,60.01
2023-10-13T16:22:08.398Z,60.59
2023-10-13T16:24:36.661Z,60.83
2023-10-13T16:27:04.793Z,60.48
2023-10-13T16:29:33.279Z,61.26
2023-10-13T16:32:01.597Z,61.92
2023-10-13T16:34:30.968Z,62.60
2023-10-13T16:36:59.025Z,62.67
2023-10-13T16:39:29.498Z,62.20
2023-10-13T16:41:57.461Z,63.09
2023-10-13T16:44:26.920Z,63.22
2023-10-13T16:46:58.037Z,63.01
2023-10-13T16:49:26.467Z,63.20
2023-10-13T16:51:55.849Z,63.95
2023-10-13T16:54:24.251Z,63.97
2023-10-13T16:56:56.678Z,64.40
2023-10-13T16:59:27.572Z,64.74
2023-10-13T17:01:56.121Z,64.05
2023-10-13T17:04:28.202Z,64.63
2023-10-13T17:06:58.365Z,65.31
2023-10-13T17:09:26.697Z,65.22
2023-10-13T17:11:54.644Z,65.95
2023-10-13T17:14:22.816Z,66.03
2023-10-13T17:16:51.279Z,65.99
2023-10-13T17:19:20.810Z,66.35
2023-10-13T17:21:50.101Z,66.70
2023-10-13T17:24:21.007Z,67.32
2023-10-13T17:26:51.038Z,66.40
2023-10-13T17:29:23.845Z,66.87
2023-10-13T17:31:51.949Z,67.32
2023-10-13T17:34:20.190Z,66.87
2023-10-13T17:36:50.084Z,67.33
2023-10-13T17:39:20.364Z,67.18
2023-10-13T17:41:49.461Z,67.05
2023-10-13T17:44:18.146Z,67.31
2023-10-13T17:46:46.440Z,67.06
2023-10-13T17:49:14.499Z,67.97
2023-10-13T17:51:44.433Z,68.33
2023-10-13T17:54:13.309Z,68.74
2023-10-13T17:56:43.144Z,68.02
2023-10-13T17:59:13.572Z,67.96
2023-10-13T18:01:41.823Z,68.55
2023-10-13T18:04:13.125Z,68.06
2023-10-13T18:06:43.754Z,68.22
2023-10-13T18:09:13.192Z,68.61
2023-10-13T18:11:43.917Z,68.53
2023-10-13T18:14:12.901Z,69.22
2023-10-13T18:16:42.587Z,69.34
2023-10-13T18:19:10.888Z,68.97
2023-10-13T18:21:39.452Z,69.59
2023-10-13T18:24:09.410Z,69.87
2023-10-13T18:26:37.884Z,69.89
2023-10-13T18:29:10.220Z,70.54
2023-10-13T18:31:38.019Z,71.00
2023-10-13T18:34:06.705Z,71.68
2023-10-13T18:36:34.660Z,71.49
2023-10-13T18:39:08.153Z,71.81
2023-10-13T18:41:37.381Z,72.31
2023-10-13T18:44:10.504Z,73.08
2023-10-13T18:46:38.808Z,73.40
2023-10-13T18:49:07.055Z,73.39
2023-10-13T18:51:35.027Z,72.76
2023-10-13T18:54:03.760Z,73.13
2023-10-13T18:56:33.859Z,73.59
2023-10-13T18:59:03.534Z,73.25
2023-10-13T19:01:35.700Z,73.88
2023-10-13T19:04:05.880Z,74.45
2023-10-13T19:06:35.679Z,74.61
2023-10-13T19:09:06.147Z,75.09
2023-10-13T19:11:36.289Z,74.80
2023-10-13T19:14:05.878Z,75.87
2023-10-13T19:16:37.006Z,74.98
2023-10-13T19:19:05.646Z,75.87
2023-10-13T19:21:37.359Z,75.95
2023-10-13T19:24:07.261Z,75.35
2023-10-13T19:26:37.442Z,77.76
2023-10-13T19:29:06.729Z,77.09
2023-10-13T19:31:36.748Z,76.74
2023-10-13T19:34:06.506Z,76.78
2023-10-13T19:36:35.913Z,75.57
2023-10-13T19:39:08.895Z,76.08
2023-10-13T19:41:38.405Z,74.86
2023-10-13T19:44:07.169Z,74.76
2023-10-13T19:46:37.633Z,73.21
2023-10-13T19:49:06.728Z,70.78
2023-10-13T19:51:35.162Z,68.65
2023-10-13T19:54:04.918Z,68.00
2023-10-13T19:56:34.470Z,65.79
2023-10-13T19:59:03.479Z,65.98
2023-10-13T20:01:34.950Z,65.14
2023-10-13T20:04:08.699Z,64.95
2023-10-13T20:06:37.424Z,64.26
2023-10-13T20:09:19.959Z,63.12
2023-10-13T20:11:48.358Z,60.95
2023-10-13T20:14:16.397Z,58.47
2023-10-13T20:16:45.591Z,59.01
2023-10-13T20:19:17.663Z,58.38
2023-10-13T20:21:46.439Z,58.42
2023-10-13T20:24:16.438Z,58.87
2023-10-13T20:26:44.897Z,58.46
2023-10-13T20:29:17.100Z,58.67
2023-10-13T20:31:48.446Z,60.24
2023-10-13T20:34:20.990Z,59.86
2023-10-13T20:36:49.393Z,58.66
2023-10-13T20:39:25.221Z,60.10
2023-10-13T20:41:53.963Z,59.34
2023-10-13T20:44:27.715Z,59.61
2023-10-13T20:46:57.990Z,59.99
2023-10-13T20:49:29.351Z,60.50
2023-10-13T20:51:57.409Z,60.50
2023-10-13T20:54:25.335Z,60.22
2023-10-13T20:56:55.708Z,61.12
2023-10-13T21:01:51.684Z,61.70
2023-10-13T21:04:19.777Z,62.13
2023-10-13T21:06:50.796Z,61.70
2023-10-13T21:09:22.394Z,62.91
2023-10-13T21:11:50.645Z,62.33
2023-10-13T21:14:18.879Z,62.44
2023-10-13T21:16:47.323Z,62.95
2023-10-13T21:19:16.434Z,62.57
2023-10-13T21:21:44.463Z,62.73
2023-10-13T21:24:13.789Z,63.92
2023-10-13T21:26:42.007Z,64.28
2023-10-13T21:29:10.021Z,64.62
2023-10-13T21:31:38.670Z,65.88
2023-10-13T21:34:08.293Z,65.74
2023-10-13T21:36:39.628Z,66.69
2023-10-13T21:39:11.972Z,68.26
2023-10-13T21:41:42.340Z,70.51
2023-10-13T21:44:10.375Z,71.32
2023-10-13T21:46:39.057Z,72.29
2023-10-13T21:49:07.324Z,71.96
2023-10-13T21:51:36.760Z,73.52
2023-10-13T21:54:08.572Z,73.49
2023-10-13T21:56:36.898Z,74.33
2023-10-13T21:59:11.629Z,76.65
2023-10-13T22:01:40.699Z,77.84
2023-10-13T22:04:12.296Z,80.75
2023-10-13T22:06:42.573Z,81.94
2023-10-13T22:09:11.402Z,84.45
2023-10-13T22:11:41.088Z,87.06
2023-10-13T22:14:13.853Z,87.52
2023-10-13T22:16:42.317Z,88.71
2023-10-13T22:19:10.328Z,89.38
2023-10-13T22:21:38.570Z,90.03
2023-10-13T22:24:07.308Z,90.95
2023-10-13T22:26:35.456Z,93.08
2023-10-13T22:29:06.256Z,92.01
2023-10-13T22:31:35.850Z,92.42
2023-10-13T22:34:05.853Z,91.16
2023-10-13T22:36:34.217Z,91.63
2023-10-13T22:39:02.211Z,90.56
2023-10-13T22:41:34.532Z,92.85
2023-10-13T22:44:06.455Z,91.39
2023-10-13T22:46:35.927Z,90.89
2023-10-13T22:49:03.859Z,90.42
2023-10-13T22:51:32.259Z,89.69
2023-10-13T22:54:00.547Z,89.04
2023-10-13T22:56:29.455Z,88.16
2023-10-13T22:58:57.396Z,88.11
2023-10-13T23:01:25.356Z,87.56
2023-10-13T23:03:58.389Z,86.39
2023-10-13T23:06:31.860Z,87.64
2023-10-13T23:09:09.908Z,86.57
2023-10-13T23:11:39.970Z,85.62
2023-10-13T23:14:13.128Z,83.86
2023-10-13T23:16:41.675Z,83.33
2023-10-13T23:19:11.204Z,82.72
2023-10-13T23:21:40.224Z,82.18
2023-10-13T23:24:11.024Z,81.88
2023-10-13T23:26:39.932Z,81.84
2023-10-13T23:29:11.051Z,81.52
2023-10-13T23:31:39.989Z,81.88
2023-10-13T23:34:08.154Z,82.16
2023-10-13T23:36:39.639Z,82.67
2023-10-13T23:39:20.302Z,82.86
2023-10-13T23:41:48.200Z,82.36
2023-10-13T23:44:16.239Z,83.05
2023-10-13T23:46:45.834Z,82.80
2023-10-13T23:49:19.115Z,83.85
2023-10-13T23:51:55.056Z,84.15
2023-10-13T23:54:23.433Z,84.06
2023-10-13T23:56:52.875Z,83.22
2023-10-13T23:59:28.078Z,83.29
